createdAt,value
2022-09-18T00:00:18.374Z,0.70
2022-09-18T00:03:21.427Z,0.70
2022-09-18T00:06:27.352Z,0.63
2022-09-18T00:09:30.585Z,0.70
2022-09-18T00:12:33.395Z,0.80
2022-09-18T00:15:36.205Z,1.10
2022-09-18T00:18:39.467Z,0.90
2022-09-18T00:21:48.627Z,0.70
2022-09-18T00:24:51.395Z,0.90
2022-09-18T00:27:54.175Z,0.70
2022-09-18T00:30:57.089Z,0.73
2022-09-18T00:34:01.404Z,0.73
2022-09-18T00:37:05.676Z,0.80
2022-09-18T00:40:09.167Z,0.70
2022-09-18T00:43:22.548Z,0.60
2022-09-18T00:46:27.647Z,0.77
2022-09-18T00:49:31.282Z,0.93
2022-09-18T00:52:48.141Z,0.80
2022-09-18T00:55:50.963Z,0.70
2022-09-18T00:58:53.818Z,0.63
2022-09-18T01:01:58.113Z,0.60
2022-09-18T01:05:00.961Z,0.77
2022-09-18T01:08:23.882Z,0.60
2022-09-18T01:11:37.986Z,0.70
2022-09-18T01:14:48.594Z,0.65
2022-09-18T01:18:00.051Z,0.93
2022-09-18T01:21:10.347Z,0.80
2022-09-18T01:24:43.688Z,0.90
2022-09-18T01:28:15.485Z,0.70
2022-09-18T01:31:24.088Z,0.80
2022-09-18T01:34:34.149Z,0.63
2022-09-18T01:37:41.956Z,0.70
2022-09-18T01:40:49.429Z,0.80
2022-09-18T01:43:57.162Z,0.82
2022-09-18T01:47:01.707Z,0.65
2022-09-18T01:50:11.491Z,0.70
2022-09-18T01:53:19.590Z,0.65
2022-09-18T01:56:27.482Z,0.70
2022-09-18T01:59:37.859Z,0.95
2022-09-18T02:02:51.797Z,0.60
2022-09-18T02:06:04.265Z,0.75
2022-09-18T02:09:09.429Z,0.70
2022-09-18T02:12:18.364Z,0.70
2022-09-18T02:15:27.878Z,0.70
2022-09-18T02:18:42.707Z,0.70
2022-09-18T02:21:48.529Z,0.68
2022-09-18T02:24:54.684Z,0.70
2022-09-18T02:27:58.472Z,0.60
2022-09-18T02:31:04.538Z,0.90
2022-09-18T02:34:09.449Z,0.70
2022-09-18T02:37:30.087Z,0.75
2022-09-18T02:40:43.442Z,0.90
2022-09-18T02:43:55.741Z,0.70
2022-09-18T02:47:12.280Z,0.70
2022-09-18T02:50:23.973Z,0.80
2022-09-18T02:53:31.534Z,0.68
2022-09-18T02:56:40.373Z,0.70
2022-09-18T02:59:47.732Z,0.80
2022-09-18T03:02:53.993Z,0.57
2022-09-18T03:06:08.603Z,0.60
2022-09-18T03:09:12.962Z,0.60
2022-09-18T03:12:15.850Z,0.60
2022-09-18T03:15:23.783Z,0.70
2022-09-18T03:18:28.780Z,0.70
2022-09-18T03:21:32.903Z,0.73
2022-09-18T03:24:35.791Z,0.60
2022-09-18T03:27:39.624Z,0.80
2022-09-18T03:30:42.737Z,0.80
2022-09-18T03:33:46.908Z,0.73
2022-09-18T03:36:50.096Z,0.75
2022-09-18T03:39:53.837Z,0.65
2022-09-18T03:42:57.033Z,0.50
2022-09-18T03:46:01.254Z,0.65
2022-09-18T03:49:05.582Z,0.70
2022-09-18T03:52:10.856Z,0.73
2022-09-18T03:55:21.167Z,0.70
2022-09-18T03:58:39.660Z,0.70
2022-09-18T04:02:14.606Z,0.77
2022-09-18T04:05:51.130Z,0.80
2022-09-18T04:09:32.191Z,0.77
2022-09-18T04:12:35.683Z,0.70
2022-09-18T04:15:52.877Z,1.10
2022-09-18T04:18:55.709Z,0.90
2022-09-18T04:21:59.951Z,0.75
2022-09-18T04:25:03.014Z,0.60
2022-09-18T04:28:05.948Z,0.80
2022-09-18T04:31:13.944Z,0.93
2022-09-18T04:34:18.161Z,0.80
2022-09-18T04:37:22.438Z,0.90
2022-09-18T04:40:27.845Z,0.70
2022-09-18T04:43:30.754Z,0.95
2022-09-18T04:46:35.178Z,0.70
2022-09-18T04:49:38.563Z,0.80
2022-09-18T04:52:43.153Z,0.65
2022-09-18T04:55:46.805Z,0.60
2022-09-18T04:58:51.153Z,0.80
2022-09-18T05:01:54.173Z,0.80
2022-09-18T05:04:57.123Z,1.00
2022-09-18T05:08:08.458Z,0.90
2022-09-18T05:11:11.286Z,0.60
2022-09-18T05:14:14.432Z,0.70
2022-09-18T05:17:20.520Z,0.80
2022-09-18T05:20:37.364Z,0.65
2022-09-18T05:23:45.326Z,0.70
2022-09-18T05:26:48.548Z,0.77
2022-09-18T05:29:55.097Z,0.90
2022-09-18T05:33:05.211Z,0.98
2022-09-18T05:36:08.898Z,0.80
2022-09-18T05:39:17.315Z,0.80
2022-09-18T05:42:20.666Z,0.60
2022-09-18T05:45:24.834Z,0.70
2022-09-18T05:48:28.339Z,0.77
2022-09-18T05:51:34.203Z,0.70
2022-09-18T05:54:38.718Z,0.80
2022-09-18T05:57:41.540Z,0.70
2022-09-18T06:00:48.660Z,0.77
2022-09-18T06:03:59.448Z,0.80
2022-09-18T06:07:11.616Z,0.90
2022-09-18T06:10:16.672Z,0.70
2022-09-18T06:13:19.940Z,0.88
2022-09-18T06:16:26.663Z,0.70
2022-09-18T06:19:35.196Z,0.63
2022-09-18T06:22:38.585Z,0.73
2022-09-18T06:25:45.198Z,0.80
2022-09-18T06:28:49.253Z,0.80
2022-09-18T06:31:52.830Z,0.80
2022-09-18T06:34:58.757Z,0.80
2022-09-18T06:38:03.903Z,0.70
2022-09-18T06:41:25.938Z,0.65
2022-09-18T06:44:30.747Z,0.80
2022-09-18T06:47:42.314Z,0.70
2022-09-18T06:50:45.474Z,0.80
2022-09-18T06:53:48.335Z,0.90
2022-09-18T06:56:53.101Z,0.80
2022-09-18T06:59:56.032Z,0.77
2022-09-18T07:03:02.615Z,0.85
2022-09-18T07:06:31.594Z,1.20
2022-09-18T07:09:34.540Z,0.90
2022-09-18T07:13:02.285Z,1.13
2022-09-18T07:16:08.564Z,1.00
2022-09-18T07:19:11.455Z,0.80
2022-09-18T07:22:14.956Z,0.68
2022-09-18T07:25:21.257Z,0.80
2022-09-18T07:28:25.630Z,0.90
2022-09-18T07:31:39.065Z,0.82
2022-09-18T07:34:44.539Z,1.13
2022-09-18T07:37:50.269Z,0.80
2022-09-18T07:40:56.742Z,0.90
2022-09-18T07:44:08.243Z,0.88
2022-09-18T07:47:12.380Z,0.93
2022-09-18T07:50:16.178Z,0.93
2022-09-18T07:53:20.304Z,0.75
2022-09-18T07:56:27.305Z,0.95
2022-09-18T07:59:32.777Z,0.82
2022-09-18T08:02:38.201Z,1.00
2022-09-18T08:05:42.729Z,1.20
2022-09-18T08:08:46.830Z,0.90
2022-09-18T08:12:00.077Z,1.00
2022-09-18T08:15:34.901Z,0.95
2022-09-18T08:19:05.270Z,1.15
2022-09-18T08:22:20.517Z,1.30
2022-09-18T08:25:28.467Z,1.30
2022-09-18T08:28:32.404Z,1.10
2022-09-18T08:31:39.147Z,1.13
2022-09-18T08:34:45.462Z,1.00
2022-09-18T08:37:50.799Z,1.08
2022-09-18T08:41:24.460Z,1.10
2022-09-18T08:44:31.404Z,1.00
2022-09-18T08:47:41.964Z,1.00
2022-09-18T08:50:54.640Z,0.82
2022-09-18T08:54:07.700Z,1.10
2022-09-18T08:57:38.870Z,1.20
2022-09-18T09:00:47.842Z,1.10
2022-09-18T09:04:03.105Z,1.15
2022-09-18T09:07:21.078Z,1.17
2022-09-18T09:10:39.108Z,1.10
2022-09-18T09:14:10.602Z,1.08
2022-09-18T09:17:20.228Z,1.15
2022-09-18T09:20:26.196Z,1.08
2022-09-18T09:23:46.349Z,1.75
2022-09-18T09:27:20.669Z,1.50
2022-09-18T09:30:57.858Z,1.67
2022-09-18T09:34:25.609Z,1.30
2022-09-18T09:37:52.247Z,2.28
2022-09-18T09:40:58.805Z,2.60
2022-09-18T09:44:15.312Z,2.35
2022-09-18T09:47:26.516Z,1.70
2022-09-18T09:50:47.863Z,1.85
2022-09-18T09:53:55.969Z,1.50
2022-09-18T09:57:08.818Z,1.75
2022-09-18T10:00:17.849Z,1.58
2022-09-18T10:03:42.291Z,1.73
2022-09-18T10:06:54.959Z,1.55
2022-09-18T10:10:05.878Z,1.40
2022-09-18T10:13:16.172Z,1.77
2022-09-18T10:16:25.376Z,1.27
2022-09-18T10:19:36.893Z,1.25
2022-09-18T10:22:41.221Z,1.08
2022-09-18T10:25:51.211Z,1.20
2022-09-18T10:28:54.077Z,1.48
2022-09-18T10:32:00.825Z,1.65
2022-09-18T10:35:45.545Z,1.50
2022-09-18T10:38:50.897Z,1.42
2022-09-18T10:42:04.394Z,1.58
2022-09-18T10:45:22.610Z,1.35
2022-09-18T10:48:28.377Z,1.60
2022-09-18T10:51:31.463Z,1.30
2022-09-18T10:54:36.494Z,1.88
2022-09-18T10:57:46.669Z,1.63
2022-09-18T11:00:57.404Z,2.25
2022-09-18T11:04:05.285Z,1.83
2022-09-18T11:07:12.765Z,1.75
2022-09-18T11:10:18.582Z,1.70
2022-09-18T11:13:27.307Z,1.67
2022-09-18T11:16:34.028Z,1.45
2022-09-18T11:19:39.047Z,1.27
2022-09-18T11:23:27.583Z,1.50
2022-09-18T11:26:33.041Z,1.15
2022-09-18T11:29:42.265Z,0.98
2022-09-18T11:32:52.519Z,1.23
2022-09-18T11:36:00.550Z,1.60
2022-09-18T11:39:15.043Z,1.10
2022-09-18T11:42:19.885Z,1.05
2022-09-18T11:45:45.984Z,1.27
2022-09-18T11:48:56.290Z,1.38
2022-09-18T11:52:04.224Z,1.73
2022-09-18T11:55:25.886Z,1.88
2022-09-18T11:58:33.886Z,1.75
2022-09-18T12:01:44.246Z,1.90
2022-09-18T12:04:52.037Z,1.80
2022-09-18T12:08:01.979Z,1.70
2022-09-18T12:11:15.234Z,2.30
2022-09-18T12:14:22.728Z,2.00
2022-09-18T12:17:52.488Z,2.80
2022-09-18T12:20:59.219Z,2.90
2022-09-18T12:24:02.256Z,2.25
2022-09-18T12:27:20.202Z,2.47
2022-09-18T12:30:29.198Z,2.83
2022-09-18T12:33:39.242Z,2.88
2022-09-18T12:36:55.539Z,3.08
2022-09-18T12:40:25.407Z,3.13
2022-09-18T12:43:47.629Z,2.13
2022-09-18T12:47:02.851Z,2.67
2022-09-18T12:50:37.650Z,2.78
2022-09-18T12:53:50.848Z,2.33
2022-09-18T12:57:10.457Z,2.42
2022-09-18T13:00:16.104Z,2.35
2022-09-18T13:03:25.766Z,2.13
2022-09-18T13:06:38.334Z,1.98
2022-09-18T13:09:47.644Z,2.10
2022-09-18T13:12:57.132Z,2.00
2022-09-18T13:16:05.060Z,1.75
2022-09-18T13:19:14.947Z,1.90
2022-09-18T13:22:21.153Z,1.90
2022-09-18T13:25:30.909Z,2.58
2022-09-18T13:28:34.366Z,1.90
2022-09-18T13:31:37.723Z,2.10
2022-09-18T13:34:49.236Z,2.10
2022-09-18T13:38:07.615Z,2.03
2022-09-18T13:41:12.406Z,2.08
2022-09-18T13:44:20.770Z,2.10
2022-09-18T13:47:24.595Z,2.03
2022-09-18T13:50:28.391Z,1.77
2022-09-18T13:53:41.740Z,1.85
2022-09-18T13:57:19.867Z,1.77
2022-09-18T14:00:41.722Z,2.03
2022-09-18T14:03:44.743Z,2.10
2022-09-18T14:06:47.634Z,2.10
2022-09-18T14:09:54.418Z,1.77
2022-09-18T14:13:17.604Z,2.40
2022-09-18T14:16:33.339Z,2.13
2022-09-18T14:19:37.942Z,2.05
2022-09-18T14:22:41.164Z,1.80
2022-09-18T14:25:47.220Z,1.80
2022-09-18T14:28:50.479Z,1.75
2022-09-18T14:31:55.369Z,1.77
2022-09-18T14:35:24.331Z,1.98
2022-09-18T14:38:35.046Z,1.77
2022-09-18T14:41:39.783Z,2.25
2022-09-18T14:44:48.914Z,1.80
2022-09-18T14:47:51.748Z,2.08
2022-09-18T14:51:06.979Z,1.90
2022-09-18T14:54:19.934Z,1.50
2022-09-18T14:57:27.933Z,1.88
2022-09-18T15:00:34.966Z,1.65
2022-09-18T15:03:40.828Z,1.70
2022-09-18T15:06:46.665Z,1.52
2022-09-18T15:09:52.925Z,1.73
2022-09-18T15:12:59.130Z,1.70
2022-09-18T15:16:04.274Z,1.52
2022-09-18T15:19:18.061Z,1.73
2022-09-18T15:22:22.823Z,1.60
2022-09-18T15:25:30.677Z,1.83
2022-09-18T15:28:37.692Z,1.60
2022-09-18T15:31:40.701Z,1.50
2022-09-18T15:34:48.316Z,1.92
2022-09-18T15:37:53.458Z,1.70
2022-09-18T15:40:56.500Z,1.67
2022-09-18T15:44:01.262Z,1.60
2022-09-18T15:47:30.623Z,1.92
2022-09-18T15:50:41.790Z,1.90
2022-09-18T15:54:03.811Z,1.70
2022-09-18T15:57:06.794Z,1.60
2022-09-18T16:00:18.888Z,1.70
2022-09-18T16:03:21.846Z,1.55
2022-09-18T16:06:28.512Z,1.90
2022-09-18T16:09:43.140Z,1.50
2022-09-18T16:12:45.965Z,1.30
2022-09-18T16:16:21.984Z,1.67
2022-09-18T16:19:24.927Z,1.48
2022-09-18T16:22:31.342Z,1.80
2022-09-18T16:25:37.427Z,1.88
2022-09-18T16:28:43.913Z,1.77
2022-09-18T16:31:48.455Z,1.80
2022-09-18T16:34:51.306Z,1.58
2022-09-18T16:37:55.167Z,1.73
2022-09-18T16:40:58.256Z,1.42
2022-09-18T16:44:01.222Z,1.75
2022-09-18T16:47:09.620Z,1.80
2022-09-18T16:50:12.454Z,1.38
2022-09-18T16:53:15.452Z,2.00
2022-09-18T16:56:27.161Z,2.28
2022-09-18T16:59:31.901Z,2.03
2022-09-18T17:02:36.306Z,1.67
2022-09-18T17:05:39.126Z,1.60
2022-09-18T17:08:46.240Z,1.80
2022-09-18T17:11:49.672Z,1.73
2022-09-18T17:14:52.755Z,1.63
2022-09-18T17:17:56.918Z,1.60
2022-09-18T17:21:01.994Z,1.90
2022-09-18T17:24:05.015Z,1.40
2022-09-18T17:27:07.858Z,1.45
2022-09-18T17:30:12.695Z,1.23
2022-09-18T17:33:20.341Z,1.40
2022-09-18T17:36:23.515Z,1.50
2022-09-18T17:39:26.352Z,1.30
2022-09-18T17:42:29.139Z,1.60
2022-09-18T17:45:33.094Z,1.55
2022-09-18T17:48:37.651Z,1.60
2022-09-18T17:51:40.444Z,1.60
2022-09-18T17:54:43.386Z,1.23
2022-09-18T17:57:46.356Z,1.35
2022-09-18T18:00:49.251Z,1.67
2022-09-18T18:03:54.425Z,1.88
2022-09-18T18:06:57.559Z,2.15
2022-09-18T18:10:00.315Z,2.80
2022-09-18T18:13:03.188Z,3.08
2022-09-18T18:16:07.689Z,2.78
2022-09-18T18:19:12.809Z,2.83
2022-09-18T18:22:15.610Z,2.38
2022-09-18T18:25:18.406Z,2.80
2022-09-18T18:28:23.286Z,3.50
2022-09-18T18:31:26.995Z,3.90
2022-09-18T18:34:31.487Z,3.38
2022-09-18T18:37:34.341Z,3.33
2022-09-18T18:40:38.857Z,3.45
2022-09-18T18:43:42.234Z,3.22
2022-09-18T18:46:45.077Z,3.03
2022-09-18T18:49:49.257Z,2.83
2022-09-18T18:52:53.648Z,3.10
2022-09-18T18:56:01.428Z,2.58
2022-09-18T18:59:06.828Z,2.40
2022-09-18T19:02:10.462Z,2.45
2022-09-18T19:05:16.342Z,2.90
2022-09-18T19:08:19.172Z,2.15
2022-09-18T19:11:21.959Z,2.60
2022-09-18T19:14:26.396Z,2.42
2022-09-18T19:17:29.210Z,2.30
2022-09-18T19:20:34.589Z,2.75
2022-09-18T19:23:37.376Z,2.58
2022-09-18T19:26:41.616Z,2.40
2022-09-18T19:29:44.393Z,2.60
2022-09-18T19:32:47.199Z,3.22
2022-09-18T19:35:51.396Z,2.30
2022-09-18T19:38:55.348Z,2.30
2022-09-18T19:42:02.034Z,1.90
2022-09-18T19:45:06.717Z,2.50
2022-09-18T19:48:16.556Z,2.10
2022-09-18T19:51:20.946Z,1.80
2022-09-18T19:54:23.741Z,2.10
2022-09-18T19:57:28.470Z,1.98
2022-09-18T20:00:31.975Z,1.98
2022-09-18T20:03:34.962Z,1.90
2022-09-18T20:06:40.490Z,1.77
2022-09-18T20:09:43.501Z,2.00
2022-09-18T20:12:47.735Z,2.05
2022-09-18T20:15:59.802Z,2.20
2022-09-18T20:19:02.749Z,2.10
2022-09-18T20:22:07.351Z,1.80
2022-09-18T20:25:11.290Z,2.72
2022-09-18T20:28:14.051Z,2.65
2022-09-18T20:31:17.748Z,2.63
2022-09-18T20:34:24.660Z,2.88
2022-09-18T20:37:32.736Z,3.33
2022-09-18T20:40:35.635Z,4.70
2022-09-18T20:43:40.920Z,4.63
2022-09-18T20:46:43.901Z,4.82
2022-09-18T20:49:48.769Z,4.32
2022-09-18T20:52:52.973Z,5.18
2022-09-18T20:55:59.463Z,5.13
2022-09-18T20:59:04.853Z,5.00
2022-09-18T21:02:08.134Z,5.07
2022-09-18T21:05:14.640Z,5.57
2022-09-18T21:08:20.087Z,5.43
2022-09-18T21:11:25.516Z,5.57
2022-09-18T21:14:29.084Z,5.13
2022-09-18T21:17:32.207Z,5.85
2022-09-18T21:20:35.432Z,5.05
2022-09-18T21:23:56.381Z,4.75
2022-09-18T21:26:59.433Z,5.15
2022-09-18T21:30:02.201Z,4.40
2022-09-18T21:33:05.074Z,5.03
2022-09-18T21:36:08.569Z,4.55
2022-09-18T21:39:14.267Z,5.00
2022-09-18T21:42:17.658Z,4.88
2022-09-18T21:45:20.697Z,4.75
2022-09-18T21:48:23.909Z,4.32
2022-09-18T21:51:26.695Z,4.47
2022-09-18T21:54:31.859Z,4.45
2022-09-18T21:57:34.641Z,4.40
2022-09-18T22:00:37.513Z,4.10
2022-09-18T22:03:40.348Z,4.25
2022-09-18T22:06:44.850Z,4.13
2022-09-18T22:09:48.997Z,3.80
2022-09-18T22:12:53.024Z,4.18
2022-09-18T22:15:56.855Z,4.10
2022-09-18T22:19:00.250Z,4.40
2022-09-18T22:22:03.166Z,4.97
2022-09-18T22:25:07.836Z,4.43
2022-09-18T22:28:10.662Z,3.80
2022-09-18T22:31:13.556Z,4.25
2022-09-18T22:34:18.187Z,3.97
2022-09-18T22:37:21.280Z,4.50
2022-09-18T22:40:25.612Z,3.58
2022-09-18T22:43:28.418Z,4.03
2022-09-18T22:46:31.508Z,4.03
2022-09-18T22:49:34.489Z,3.80
2022-09-18T22:52:37.990Z,3.25
2022-09-18T22:55:42.116Z,3.55
2022-09-18T22:58:45.353Z,3.50
2022-09-18T23:01:51.235Z,3.35
2022-09-18T23:04:54.093Z,3.30
2022-09-18T23:07:56.999Z,3.45
2022-09-18T23:11:05.048Z,3.33
2022-09-18T23:14:09.794Z,3.20
2022-09-18T23:17:12.615Z,3.03
2022-09-18T23:20:16.394Z,4.38
2022-09-18T23:23:19.502Z,3.45
2022-09-18T23:26:25.318Z,3.25
2022-09-18T23:29:31.770Z,3.08
2022-09-18T23:32:34.555Z,3.60
2022-09-18T23:35:37.319Z,3.22
2022-09-18T23:38:40.424Z,3.20
2022-09-18T23:41:45.096Z,2.83
2022-09-18T23:44:47.934Z,3.47
2022-09-18T23:47:51.077Z,3.13
2022-09-18T23:50:54.805Z,2.92
2022-09-18T23:53:59.898Z,2.83
2022-09-18T23:57:04.196Z,3.30
